createdAt,value
2018-08-03T00:00:22.164Z,23.38
2018-08-03T00:01:22.429Z,23.38
2018-08-03T00:02:22.416Z,23.36
2018-08-03T00:03:22.415Z,23.33
2018-08-03T00:04:22.156Z,23.33
2018-08-03T00:05:22.413Z,23.33
2018-08-03T00:06:22.153Z,23.31
2018-08-03T00:07:22.409Z,23.39
2018-08-03T00:08:22.151Z,23.28
2018-08-03T00:09:22.402Z,23.25
2018-08-03T00:10:22.152Z,23.25
2018-08-03T00:11:22.400Z,23.28
2018-08-03T00:12:22.407Z,23.25
2018-08-03T00:13:22.398Z,23.22
2018-08-03T00:14:22.398Z,23.22
2018-08-03T00:15:22.404Z,23.2
2018-08-03T00:16:22.142Z,23.23
2018-08-03T00:17:22.140Z,23.15
2018-08-03T00:18:22.392Z,23.09
2018-08-03T00:19:22.389Z,23.2
2018-08-03T00:20:22.395Z,23.19
2018-08-03T00:21:22.401Z,23.13
2018-08-03T00:22:22.390Z,23.05
2018-08-03T00:23:22.386Z,23.12
2018-08-03T00:24:22.386Z,23.09
2018-08-03T00:25:22.385Z,23.07
2018-08-03T00:26:22.383Z,23.05
2018-08-03T00:27:22.391Z,23
2018-08-03T00:28:22.381Z,23.01
2018-08-03T00:29:22.378Z,22.92
2018-08-03T00:30:22.125Z,23.05
2018-08-03T00:31:22.376Z,23.02
2018-08-03T00:32:22.375Z,22.92
2018-08-03T00:33:22.120Z,22.98
2018-08-03T00:34:22.375Z,23
2018-08-03T00:35:21.867Z,22.94
2018-08-03T00:36:22.116Z,22.92
2018-08-03T00:37:22.368Z,22.85
2018-08-03T00:38:22.371Z,22.86
2018-08-03T00:39:22.363Z,22.86
2018-08-03T00:40:22.366Z,22.85
2018-08-03T00:41:22.361Z,22.85
2018-08-03T00:42:22.108Z,22.9
2018-08-03T00:43:22.106Z,22.83
2018-08-03T00:44:22.356Z,22.85
2018-08-03T00:45:22.356Z,22.85
2018-08-03T00:46:22.357Z,22.77
2018-08-03T00:47:22.351Z,22.77
2018-08-03T00:48:22.098Z,22.8
2018-08-03T00:49:22.352Z,22.7
2018-08-03T00:50:22.097Z,22.73
2018-08-03T00:51:22.098Z,22.72
2018-08-03T00:52:22.349Z,22.76
2018-08-03T00:53:22.343Z,22.68
2018-08-03T00:54:22.090Z,22.75
2018-08-03T00:55:22.342Z,22.75
2018-08-03T00:56:22.338Z,22.75
2018-08-03T00:57:22.339Z,22.67
2018-08-03T00:58:22.334Z,22.68
2018-08-03T00:59:22.332Z,22.64
2018-08-03T01:00:22.081Z,22.61
2018-08-03T01:01:22.332Z,22.61
2018-08-03T01:02:22.329Z,22.55
2018-08-03T01:03:22.326Z,22.64
2018-08-03T01:04:22.325Z,22.55
2018-08-03T01:05:22.329Z,22.58
2018-08-03T01:06:22.323Z,22.49
2018-08-03T01:07:22.068Z,22.49
2018-08-03T01:08:22.321Z,22.47
2018-08-03T01:09:22.321Z,22.46
2018-08-03T01:10:22.314Z,22.46
2018-08-03T01:11:22.063Z,22.47
2018-08-03T01:12:22.060Z,22.47
2018-08-03T01:13:22.066Z,22.46
2018-08-03T01:14:22.307Z,22.46
2018-08-03T01:15:22.310Z,22.43
2018-08-03T01:16:22.305Z,22.42
2018-08-03T01:17:22.304Z,22.43
2018-08-03T01:18:22.302Z,22.49
2018-08-03T01:19:22.300Z,22.46
2018-08-03T01:20:22.300Z,22.46
2018-08-03T01:21:22.297Z,22.4
2018-08-03T01:22:22.294Z,22.39
2018-08-03T01:23:22.045Z,22.42
2018-08-03T01:24:22.296Z,22.36
2018-08-03T01:25:22.037Z,22.36
2018-08-03T01:26:22.038Z,22.37
2018-08-03T01:27:22.288Z,22.31
2018-08-03T01:28:22.286Z,22.31
2018-08-03T01:29:22.325Z,22.31
2018-08-03T01:30:22.278Z,22.3
2018-08-03T01:31:22.283Z,22.37
2018-08-03T01:32:22.281Z,22.22
2018-08-03T01:33:22.278Z,22.24
2018-08-03T01:34:22.273Z,22.22
2018-08-03T01:35:22.019Z,22.22
2018-08-03T01:36:22.270Z,22.33
2018-08-03T01:37:22.272Z,22.33
2018-08-03T01:38:22.266Z,22.25
2018-08-03T01:39:22.263Z,22.27
2018-08-03T01:40:22.261Z,22.27
2018-08-03T01:41:22.268Z,22.24
2018-08-03T01:42:22.285Z,22.27
2018-08-03T01:43:22.010Z,22.24
2018-08-03T01:44:22.256Z,22.24
2018-08-03T01:45:22.257Z,22.22
2018-08-03T01:46:22.251Z,22.22
2018-08-03T01:47:22.259Z,22.18
2018-08-03T01:48:22.256Z,22.22
2018-08-03T01:49:22.245Z,22.21
2018-08-03T01:50:22.248Z,22.21
2018-08-03T01:51:22.242Z,22.22
2018-08-03T01:52:22.240Z,22.15
2018-08-03T01:53:22.241Z,22.18
2018-08-03T01:54:22.239Z,22.15
2018-08-03T01:55:22.233Z,22.15
2018-08-03T01:56:21.984Z,22.07
2018-08-03T01:57:21.987Z,22.09
2018-08-03T01:58:22.233Z,22.14
2018-08-03T01:59:22.229Z,22.15
2018-08-03T02:00:21.976Z,22.07
2018-08-03T02:01:21.980Z,22.07
2018-08-03T02:02:21.721Z,22.07
2018-08-03T02:03:22.424Z,22.05
2018-08-03T02:04:21.968Z,22.1
2018-08-03T02:05:22.219Z,22.03
2018-08-03T02:06:21.965Z,21.98
2018-08-03T02:07:22.216Z,22.06
2018-08-03T02:08:22.212Z,22.03
2018-08-03T02:09:22.215Z,22.03
2018-08-03T02:10:21.957Z,22.14
2018-08-03T02:11:22.221Z,22.05
2018-08-03T02:12:22.209Z,22.07
2018-08-03T02:13:21.954Z,22.05
2018-08-03T02:14:21.952Z,22.09
2018-08-03T02:15:21.947Z,22.06
2018-08-03T02:16:22.196Z,22.06
2018-08-03T02:17:22.196Z,22.15
2018-08-03T02:18:22.194Z,22.07
2018-08-03T02:19:22.190Z,22.24
2018-08-03T02:20:21.686Z,22.25
2018-08-03T02:21:21.942Z,22.2
2018-08-03T02:22:21.684Z,22.18
2018-08-03T02:23:22.183Z,22.2
2018-08-03T02:24:22.181Z,22.17
2018-08-03T02:25:22.180Z,22.17
2018-08-03T02:26:22.177Z,22.15
2018-08-03T02:27:22.185Z,22.15
2018-08-03T02:28:21.929Z,22.17
2018-08-03T02:29:22.173Z,22.09
2018-08-03T02:30:22.192Z,22.17
2018-08-03T02:31:21.919Z,22.21
2018-08-03T02:32:21.939Z,22.21
2018-08-03T02:33:22.167Z,22.1
2018-08-03T02:34:22.171Z,22.1
2018-08-03T02:35:22.163Z,22.05
2018-08-03T02:36:22.188Z,22.03
2018-08-03T02:37:22.164Z,22.07
2018-08-03T02:38:22.157Z,22.07
2018-08-03T02:39:22.175Z,21.98
2018-08-03T02:40:22.156Z,22
2018-08-03T02:41:21.901Z,22.02
2018-08-03T02:42:22.150Z,21.99
2018-08-03T02:43:22.165Z,22.06
2018-08-03T02:44:22.147Z,22.05
2018-08-03T02:45:22.146Z,22.03
2018-08-03T02:46:22.144Z,22.07
2018-08-03T02:47:22.140Z,21.96
2018-08-03T02:48:22.147Z,22
2018-08-03T02:49:21.884Z,21.92
2018-08-03T02:50:22.136Z,21.91
2018-08-03T02:51:22.144Z,21.91
2018-08-03T02:52:22.135Z,21.96
2018-08-03T02:53:22.129Z,21.91
2018-08-03T02:54:22.133Z,21.96
2018-08-03T02:55:22.132Z,21.88
2018-08-03T02:56:22.121Z,21.86
2018-08-03T02:57:22.120Z,21.91
2018-08-03T02:58:21.871Z,21.94
2018-08-03T02:59:22.118Z,21.94
2018-08-03T03:00:22.116Z,21.94
2018-08-03T03:01:22.118Z,21.92
2018-08-03T03:02:22.121Z,21.88
2018-08-03T03:03:22.113Z,21.94
2018-08-03T03:04:21.856Z,21.91
2018-08-03T03:05:22.106Z,21.92
2018-08-03T03:06:22.105Z,21.88
2018-08-03T03:07:22.291Z,21.9
2018-08-03T03:08:22.101Z,21.94
2018-08-03T03:09:22.098Z,21.9
2018-08-03T03:10:21.846Z,21.92
2018-08-03T03:11:22.137Z,21.88
2018-08-03T03:12:22.095Z,21.9
2018-08-03T03:13:22.090Z,21.92
2018-08-03T03:14:22.088Z,21.9
2018-08-03T03:15:22.090Z,21.9
2018-08-03T03:16:21.838Z,21.98
2018-08-03T03:17:22.104Z,21.92
2018-08-03T03:18:21.829Z,21.83
2018-08-03T03:19:22.246Z,21.91
2018-08-03T03:20:21.574Z,21.9
2018-08-03T03:21:22.076Z,21.94
2018-08-03T03:22:22.075Z,21.94
2018-08-03T03:23:22.077Z,21.92
2018-08-03T03:24:21.820Z,21.94
2018-08-03T03:25:22.065Z,21.94
2018-08-03T03:26:22.064Z,21.84
2018-08-03T03:27:22.111Z,21.84
2018-08-03T03:28:21.809Z,21.86
2018-08-03T03:29:21.808Z,21.84
2018-08-03T03:30:22.059Z,21.86
2018-08-03T03:31:21.812Z,21.8
2018-08-03T03:32:21.808Z,21.84
2018-08-03T03:33:22.130Z,21.79
2018-08-03T03:34:22.055Z,21.86
2018-08-03T03:35:22.057Z,21.8
2018-08-03T03:36:22.049Z,21.82
2018-08-03T03:37:22.045Z,21.82
2018-08-03T03:38:22.052Z,21.83
2018-08-03T03:39:22.041Z,21.79
2018-08-03T03:40:22.037Z,21.79
2018-08-03T03:41:22.036Z,21.79
2018-08-03T03:42:22.043Z,21.88
2018-08-03T03:43:22.032Z,21.84
2018-08-03T03:44:22.034Z,21.83
2018-08-03T03:45:22.034Z,21.9
2018-08-03T03:46:21.776Z,21.86
2018-08-03T03:47:22.024Z,21.91
2018-08-03T03:48:21.776Z,21.94
2018-08-03T03:49:22.023Z,22.02
2018-08-03T03:50:22.023Z,22.07
2018-08-03T03:51:22.017Z,22.05
2018-08-03T03:52:21.763Z,22.07
2018-08-03T03:53:22.014Z,22.09
2018-08-03T03:54:22.010Z,22.15
2018-08-03T03:55:22.015Z,22.17
2018-08-03T03:56:22.006Z,22.24
2018-08-03T03:57:22.014Z,22.22
2018-08-03T03:58:21.749Z,22.22
2018-08-03T03:59:21.898Z,22.36
2018-08-03T04:00:22.016Z,22.33
2018-08-03T04:01:21.997Z,22.4
2018-08-03T04:02:21.999Z,22.47
2018-08-03T04:03:21.999Z,22.43
2018-08-03T04:04:21.998Z,22.51
2018-08-03T04:05:21.993Z,22.47
2018-08-03T04:06:21.998Z,22.58
2018-08-03T04:07:21.996Z,22.64
2018-08-03T04:08:21.984Z,22.6
2018-08-03T04:09:21.985Z,22.67
2018-08-03T04:10:21.731Z,22.79
2018-08-03T04:11:21.980Z,22.9
2018-08-03T04:12:22.215Z,22.98
2018-08-03T04:13:21.977Z,22.95
2018-08-03T04:14:21.977Z,23.04
2018-08-03T04:15:21.975Z,23.1
2018-08-03T04:16:21.978Z,23.17
2018-08-03T04:17:22.026Z,23.22
2018-08-03T04:18:21.984Z,23.32
2018-08-03T04:19:21.720Z,23.32
2018-08-03T04:20:21.971Z,23.33
2018-08-03T04:21:21.966Z,23.46
2018-08-03T04:22:21.965Z,23.38
2018-08-03T04:23:21.967Z,23.42
2018-08-03T04:24:21.965Z,23.42
2018-08-03T04:25:21.716Z,23.47
2018-08-03T04:26:21.965Z,23.42
2018-08-03T04:27:21.966Z,23.42
2018-08-03T04:28:21.963Z,23.4
2018-08-03T04:29:21.970Z,23.48
2018-08-03T04:30:21.987Z,23.46
2018-08-03T04:31:21.971Z,23.48
2018-08-03T04:32:21.708Z,23.58
2018-08-03T04:33:21.706Z,23.51
2018-08-03T04:34:21.705Z,23.54
2018-08-03T04:35:22.000Z,23.7
2018-08-03T04:36:21.961Z,23.72
2018-08-03T04:37:21.954Z,23.7
2018-08-03T04:38:22.024Z,23.78
2018-08-03T04:39:21.966Z,23.72
2018-08-03T04:40:21.972Z,23.8
2018-08-03T04:41:21.952Z,23.8
2018-08-03T04:42:22.333Z,23.8
2018-08-03T04:43:21.700Z,23.87
2018-08-03T04:44:21.948Z,23.88
2018-08-03T04:45:21.952Z,24
2018-08-03T04:46:21.958Z,24.13
2018-08-03T04:47:21.954Z,24.1
2018-08-03T04:48:21.949Z,24.22
2018-08-03T04:49:21.949Z,24.27
2018-08-03T04:50:21.717Z,24.31
2018-08-03T04:51:21.946Z,24.5
2018-08-03T04:52:21.947Z,24.55
2018-08-03T04:53:21.954Z,24.61
2018-08-03T04:54:21.726Z,24.64
2018-08-03T04:55:21.697Z,24.85
2018-08-03T04:56:21.947Z,24.91
2018-08-03T04:57:21.947Z,25.08
2018-08-03T04:58:21.949Z,25.2
2018-08-03T04:59:21.950Z,25.38
2018-08-03T05:00:21.954Z,25.52
2018-08-03T05:01:21.952Z,25.62
2018-08-03T05:02:21.949Z,25.65
2018-08-03T05:03:21.703Z,25.73
2018-08-03T05:04:21.958Z,25.76
2018-08-03T05:05:21.957Z,25.88
2018-08-03T05:06:21.702Z,25.85
2018-08-03T05:07:21.958Z,25.87
2018-08-03T05:08:21.966Z,25.82
2018-08-03T05:09:21.958Z,25.88
2018-08-03T05:10:21.959Z,25.83
2018-08-03T05:11:21.960Z,25.73
2018-08-03T05:12:21.713Z,25.77
2018-08-03T05:13:21.965Z,25.61
2018-08-03T05:14:21.965Z,25.55
2018-08-03T05:15:21.989Z,25.45
2018-08-03T05:16:21.719Z,25.43
2018-08-03T05:17:21.719Z,25.32
2018-08-03T05:18:21.970Z,25.33
2018-08-03T05:19:21.719Z,25.36
2018-08-03T05:20:21.972Z,25.39
2018-08-03T05:21:21.976Z,25.5
2018-08-03T05:22:21.975Z,25.62
2018-08-03T05:23:21.976Z,25.83
2018-08-03T05:24:22.263Z,26.1
2018-08-03T05:25:22.001Z,26.39
2018-08-03T05:26:21.980Z,26.72
2018-08-03T05:27:21.985Z,26.95
2018-08-03T05:28:21.990Z,27.1
2018-08-03T05:29:22.002Z,27.25
2018-08-03T05:30:22.152Z,27.37
2018-08-03T05:31:21.740Z,27.41
2018-08-03T05:32:21.745Z,27.57
2018-08-03T05:33:21.998Z,27.57
2018-08-03T05:34:21.998Z,27.62
2018-08-03T05:35:22.085Z,27.62
2018-08-03T05:36:21.561Z,27.47
2018-08-03T05:37:21.758Z,27.37
2018-08-03T05:38:22.008Z,27.31
2018-08-03T05:39:22.011Z,27.03
2018-08-03T05:40:22.025Z,27.04
2018-08-03T05:41:21.770Z,27.04
2018-08-03T05:42:21.779Z,27.04
2018-08-03T05:43:21.771Z,26.95
2018-08-03T05:44:22.040Z,26.89
2018-08-03T05:45:21.788Z,26.8
2018-08-03T05:46:22.035Z,26.85
2018-08-03T05:47:22.034Z,26.84
2018-08-03T05:48:22.045Z,26.67
2018-08-03T05:49:22.040Z,26.82
2018-08-03T05:50:22.216Z,26.81
2018-08-03T05:51:22.049Z,26.85
2018-08-03T05:52:21.864Z,26.77
2018-08-03T05:53:22.049Z,26.73
2018-08-03T05:54:21.801Z,26.66
2018-08-03T05:55:22.100Z,26.67
2018-08-03T05:56:22.055Z,26.63
2018-08-03T05:57:21.807Z,26.66
2018-08-03T05:58:22.098Z,26.67
2018-08-03T05:59:21.560Z,26.69
2018-08-03T06:00:21.814Z,26.65
2018-08-03T06:01:22.067Z,26.48
2018-08-03T06:02:22.079Z,26.37
2018-08-03T06:03:22.086Z,26.39
2018-08-03T06:04:22.076Z,26.4
2018-08-03T06:05:22.080Z,26.29
2018-08-03T06:06:22.080Z,26.32
2018-08-03T06:07:22.081Z,26.37
2018-08-03T06:08:21.991Z,26.48
2018-08-03T06:09:22.089Z,26.51
2018-08-03T06:10:22.091Z,26.77
2018-08-03T06:11:22.099Z,26.97
2018-08-03T06:12:21.847Z,27.03
2018-08-03T06:13:22.103Z,27.41
2018-08-03T06:14:22.100Z,27.65
2018-08-03T06:15:21.852Z,27.79
2018-08-03T06:16:21.857Z,28.04
2018-08-03T06:17:22.120Z,28.19
2018-08-03T06:18:21.611Z,28.4
2018-08-03T06:19:22.117Z,28.51
2018-08-03T06:20:22.123Z,28.56
2018-08-03T06:21:22.124Z,28.64
2018-08-03T06:22:22.150Z,28.88
2018-08-03T06:23:21.884Z,28.9
2018-08-03T06:24:22.163Z,29.08
2018-08-03T06:25:22.151Z,29.28
2018-08-03T06:26:21.898Z,29.51
2018-08-03T06:27:21.903Z,29.64
2018-08-03T06:28:22.213Z,29.67
2018-08-03T06:29:21.912Z,29.8
2018-08-03T06:30:21.919Z,30.02
2018-08-03T06:31:21.925Z,30.07
2018-08-03T06:32:22.231Z,30.38
2018-08-03T06:33:21.938Z,30.55
2018-08-03T06:34:22.206Z,30.88
2018-08-03T06:35:21.950Z,31.01
2018-08-03T06:36:21.964Z,31.1
2018-08-03T06:37:22.223Z,31.16
2018-08-03T06:38:22.389Z,31.39
2018-08-03T06:39:22.234Z,31.56
2018-08-03T06:40:21.992Z,31.66
2018-08-03T06:41:22.248Z,31.58
2018-08-03T06:42:22.282Z,31.51
2018-08-03T06:43:22.013Z,31.58
2018-08-03T06:44:22.273Z,31.39
2018-08-03T06:45:22.282Z,31.47
2018-08-03T06:46:22.040Z,31.39
2018-08-03T06:47:22.049Z,31.28
2018-08-03T06:48:22.522Z,31.34
2018-08-03T06:49:22.333Z,31.2
2018-08-03T06:50:22.329Z,31.13
2018-08-03T06:51:22.090Z,31.31
2018-08-03T06:52:22.351Z,31.46
2018-08-03T06:53:22.355Z,31.57
2018-08-03T06:54:22.372Z,31.69
2018-08-03T06:55:22.382Z,31.89
2018-08-03T06:56:22.393Z,32.14
2018-08-03T06:57:22.460Z,32.3
2018-08-03T06:58:22.412Z,32.55
2018-08-03T06:59:22.466Z,32.81
2018-08-03T07:00:22.276Z,33.06
2018-08-03T07:01:22.436Z,33.35
2018-08-03T07:02:35.189Z,33.66
2018-08-03T07:03:41.657Z,33.75
2018-08-03T07:04:22.546Z,33.97
2018-08-03T07:05:22.495Z,34.13
2018-08-03T07:06:22.489Z,34.28
2018-08-03T07:07:22.499Z,34.49
2018-08-03T07:08:22.548Z,34.61
2018-08-03T07:09:22.273Z,34.73
2018-08-03T07:10:22.282Z,34.58
2018-08-03T07:11:22.542Z,34.49
2018-08-03T07:12:22.553Z,34.42
2018-08-03T07:13:22.568Z,34.31
2018-08-03T07:14:22.580Z,34.3
2018-08-03T07:15:22.587Z,34.34
2018-08-03T07:16:22.347Z,34.28
2018-08-03T07:17:22.612Z,34.46
2018-08-03T07:18:22.627Z,34.54
2018-08-03T07:19:22.628Z,34.54
2018-08-03T07:20:22.970Z,34.52
2018-08-03T07:21:22.656Z,34.47
2018-08-03T07:22:22.666Z,34.53
2018-08-03T07:23:22.425Z,34.49
2018-08-03T07:24:22.688Z,34.52
2018-08-03T07:25:22.452Z,34.42
2018-08-03T07:26:22.714Z,34.37
2018-08-03T07:27:22.726Z,34.25
2018-08-03T07:28:22.733Z,34.16
2018-08-03T07:29:22.750Z,33.95
2018-08-03T07:30:22.506Z,33.88
2018-08-03T07:31:22.768Z,33.81
2018-08-03T07:32:22.780Z,33.66
2018-08-03T07:33:22.291Z,33.54
2018-08-03T07:34:22.552Z,33.63
2018-08-03T07:35:22.815Z,33.63
2018-08-03T07:36:22.577Z,33.71
2018-08-03T07:37:22.836Z,33.63
2018-08-03T07:38:22.848Z,33.53
2018-08-03T07:39:22.861Z,33.5
2018-08-03T07:40:22.868Z,33.49
2018-08-03T07:41:22.884Z,33.45
2018-08-03T07:42:22.893Z,33.51
2018-08-03T07:43:22.904Z,33.47
2018-08-03T07:44:23.089Z,33.5
2018-08-03T07:45:22.929Z,33.49
2018-08-03T07:46:22.942Z,33.59
2018-08-03T07:47:22.955Z,33.6
2018-08-03T07:48:22.962Z,33.66
2018-08-03T07:49:22.723Z,33.82
2018-08-03T07:50:22.988Z,33.78
2018-08-03T07:51:22.754Z,33.84
2018-08-03T07:52:22.787Z,33.88
2018-08-03T07:53:23.018Z,33.75
2018-08-03T07:54:22.784Z,33.6
2018-08-03T07:55:23.044Z,33.57
2018-08-03T07:56:22.803Z,33.6
2018-08-03T07:57:23.066Z,33.56
2018-08-03T07:58:23.079Z,33.65
2018-08-03T07:59:22.841Z,33.82
2018-08-03T08:00:23.102Z,33.87
2018-08-03T08:01:22.862Z,33.66
2018-08-03T08:02:23.125Z,33.68
2018-08-03T08:03:23.466Z,33.65
2018-08-03T08:04:23.149Z,33.73
2018-08-03T08:05:22.909Z,33.76
2018-08-03T08:06:23.046Z,33.78
2018-08-03T08:07:23.182Z,33.82
2018-08-03T08:08:23.222Z,33.73
2018-08-03T08:09:22.956Z,33.47
2018-08-03T08:10:23.218Z,33.45
2018-08-03T08:11:22.981Z,33.31
2018-08-03T08:12:23.251Z,33.42
2018-08-03T08:13:23.255Z,33.39
2018-08-03T08:14:23.019Z,33.44
2018-08-03T08:15:23.368Z,33.38
2018-08-03T08:16:23.046Z,33.37
2018-08-03T08:17:23.309Z,33.32
2018-08-03T08:18:23.321Z,33.14
2018-08-03T08:19:23.334Z,33.12
2018-08-03T08:20:23.342Z,33.18
2018-08-03T08:21:23.355Z,33.29
2018-08-03T08:22:23.371Z,33.31
2018-08-03T08:23:23.383Z,33.32
2018-08-03T08:24:23.396Z,33.34
2018-08-03T08:25:23.152Z,33.37
2018-08-03T08:26:23.161Z,33.5
2018-08-03T08:27:23.425Z,33.45
2018-08-03T08:28:23.438Z,33.56
2018-08-03T08:29:23.452Z,33.47
2018-08-03T08:30:23.464Z,33.51
2018-08-03T08:31:23.569Z,33.57
2018-08-03T08:32:23.486Z,33.49
2018-08-03T08:33:23.504Z,33.59
2018-08-03T08:34:23.513Z,33.66
2018-08-03T08:35:23.522Z,33.54
2018-08-03T08:36:23.533Z,33.6
2018-08-03T08:37:23.294Z,33.42
2018-08-03T08:38:23.557Z,33.41
2018-08-03T08:39:23.570Z,33.16
2018-08-03T08:40:23.580Z,33.09
2018-08-03T08:41:23.595Z,32.96
2018-08-03T08:42:23.606Z,32.94
2018-08-03T08:43:23.374Z,33.04
2018-08-03T08:44:23.631Z,33.06
2018-08-03T08:45:23.397Z,33.09
2018-08-03T08:46:23.406Z,33.03
2018-08-03T08:47:23.679Z,32.99
2018-08-03T08:48:23.426Z,32.97
2018-08-03T08:49:23.699Z,33.06
2018-08-03T08:50:23.452Z,33.04
2018-08-03T08:51:23.714Z,33.04
2018-08-03T08:52:23.476Z,32.93
2018-08-03T08:53:23.889Z,32.82
2018-08-03T08:54:23.746Z,32.57
2018-08-03T08:55:23.772Z,32.4
2018-08-03T08:56:23.519Z,32.37
2018-08-03T08:57:23.779Z,32.18
2018-08-03T08:58:23.790Z,32.19
2018-08-03T08:59:23.806Z,32.07
2018-08-03T09:00:23.809Z,31.92
2018-08-03T09:01:23.573Z,31.86
2018-08-03T09:02:23.577Z,31.78
2018-08-03T09:03:23.585Z,31.63
2018-08-03T09:04:24.094Z,31.47
2018-08-03T09:05:23.603Z,31.41
2018-08-03T09:06:23.610Z,31.25
2018-08-03T09:07:24.091Z,31.21
2018-08-03T09:08:23.878Z,31.1
2018-08-03T09:09:23.633Z,30.98
2018-08-03T09:10:23.903Z,30.97
2018-08-03T09:11:23.901Z,30.88
2018-08-03T09:12:23.913Z,30.83
2018-08-03T09:13:23.665Z,30.86
2018-08-03T09:14:23.921Z,30.92
2018-08-03T09:15:23.929Z,30.97
2018-08-03T09:16:23.938Z,30.94
2018-08-03T09:17:23.689Z,30.88
2018-08-03T09:18:24.087Z,30.89
2018-08-03T09:19:23.706Z,30.84
2018-08-03T09:20:23.963Z,30.79
2018-08-03T09:21:23.965Z,30.75
2018-08-03T09:22:23.978Z,30.76
2018-08-03T09:23:23.724Z,30.58
2018-08-03T09:24:23.733Z,30.45
2018-08-03T09:25:23.989Z,30.37
2018-08-03T09:26:23.493Z,30.29
2018-08-03T09:27:24.006Z,30.26
2018-08-03T09:28:23.826Z,30.16
2018-08-03T09:29:24.027Z,30.11
2018-08-03T09:30:23.766Z,30.11
2018-08-03T09:31:24.027Z,30.13
2018-08-03T09:32:24.034Z,30.17
2018-08-03T09:33:24.041Z,30.22
2018-08-03T09:34:24.038Z,30.19
2018-08-03T09:35:24.046Z,30.17
2018-08-03T09:36:24.119Z,30.26
2018-08-03T09:37:24.059Z,30.23
2018-08-03T09:38:24.064Z,30.37
2018-08-03T09:39:24.064Z,30.24
2018-08-03T09:40:23.567Z,30.27
2018-08-03T09:41:24.074Z,30.35
2018-08-03T09:42:24.080Z,30.34
2018-08-03T09:43:24.088Z,30.37
2018-08-03T09:44:24.089Z,30.34
2018-08-03T09:45:24.100Z,30.38
2018-08-03T09:46:23.849Z,30.39
2018-08-03T09:47:23.859Z,30.39
2018-08-03T09:48:24.112Z,30.51
2018-08-03T09:49:23.865Z,30.37
2018-08-03T09:50:23.867Z,30.26
2018-08-03T09:51:24.135Z,30.31
2018-08-03T09:52:24.131Z,30.32
2018-08-03T09:53:23.887Z,30.26
2018-08-03T09:54:24.213Z,30.31
2018-08-03T09:55:24.426Z,30.34
2018-08-03T09:56:24.154Z,30.37
2018-08-03T09:57:24.160Z,30.45
2018-08-03T09:58:24.161Z,30.35
2018-08-03T09:59:24.171Z,30.49
2018-08-03T10:00:23.918Z,30.46
2018-08-03T10:01:24.174Z,30.47
2018-08-03T10:02:24.189Z,30.46
2018-08-03T10:03:24.186Z,30.6
2018-08-03T10:04:24.189Z,30.61
2018-08-03T10:05:24.195Z,30.77
2018-08-03T10:06:24.199Z,30.82
2018-08-03T10:07:24.321Z,30.84
2018-08-03T10:08:24.213Z,30.84
2018-08-03T10:09:24.218Z,30.8
2018-08-03T10:10:23.971Z,30.84
2018-08-03T10:11:23.973Z,30.75
2018-08-03T10:12:23.979Z,30.75
2018-08-03T10:13:23.984Z,30.75
2018-08-03T10:14:23.988Z,30.75
2018-08-03T10:15:24.044Z,30.73
2018-08-03T10:16:24.249Z,30.86
2018-08-03T10:17:24.256Z,30.75
2018-08-03T10:18:24.259Z,30.57
2018-08-03T10:19:24.021Z,30.61
2018-08-03T10:20:24.019Z,30.49
2018-08-03T10:21:24.272Z,30.51
2018-08-03T10:22:24.394Z,30.57
2018-08-03T10:23:23.783Z,30.55
2018-08-03T10:24:24.289Z,30.61
2018-08-03T10:25:24.299Z,30.61
2018-08-03T10:26:24.052Z,30.64
2018-08-03T10:27:24.306Z,30.76
2018-08-03T10:28:24.059Z,30.73
2018-08-03T10:29:24.063Z,30.73
2018-08-03T10:30:24.321Z,30.82
2018-08-03T10:31:24.325Z,30.83
2018-08-03T10:32:24.342Z,30.84
2018-08-03T10:33:24.338Z,30.84
2018-08-03T10:34:24.343Z,30.83
2018-08-03T10:35:24.348Z,30.92
2018-08-03T10:36:24.100Z,30.99
2018-08-03T10:37:24.353Z,30.97
2018-08-03T10:38:24.359Z,31.02
2018-08-03T10:39:24.117Z,30.99
2018-08-03T10:40:24.370Z,30.98
2018-08-03T10:41:24.375Z,31.12
2018-08-03T10:42:24.129Z,31.01
2018-08-03T10:43:24.387Z,31.13
2018-08-03T10:44:24.398Z,31.06
2018-08-03T10:45:24.144Z,31.09
2018-08-03T10:46:24.402Z,31.01
2018-08-03T10:47:24.153Z,31.09
2018-08-03T10:48:24.158Z,31.04
2018-08-03T10:49:24.164Z,31.19
2018-08-03T10:50:24.175Z,31.16
2018-08-03T10:51:24.595Z,31.14
2018-08-03T10:52:24.434Z,31.19
2018-08-03T10:53:24.184Z,31.19
2018-08-03T10:54:24.449Z,31.17
2018-08-03T10:55:24.456Z,31.17
2018-08-03T10:56:24.454Z,31.2
2018-08-03T10:57:24.457Z,31.16
2018-08-03T10:58:24.684Z,31.25
2018-08-03T10:59:24.478Z,31.35
2018-08-03T11:00:24.509Z,31.36
2018-08-03T11:01:24.763Z,31.41
2018-08-03T11:02:24.488Z,31.34
2018-08-03T11:03:24.488Z,31.36
2018-08-03T11:04:24.494Z,31.38
2018-08-03T11:05:24.504Z,31.39
2018-08-03T11:06:24.506Z,31.48
2018-08-03T11:07:24.507Z,31.53
2018-08-03T11:08:24.261Z,31.53
2018-08-03T11:09:24.520Z,31.62
2018-08-03T11:10:24.531Z,31.57
2018-08-03T11:11:24.534Z,31.62
2018-08-03T11:12:24.289Z,31.48
2018-08-03T11:13:24.587Z,31.53
2018-08-03T11:14:24.549Z,31.34
2018-08-03T11:15:24.550Z,31.34
2018-08-03T11:16:24.570Z,31.38
2018-08-03T11:17:24.314Z,31.36
2018-08-03T11:18:24.317Z,31.35
2018-08-03T11:19:24.580Z,31.44
2018-08-03T11:20:24.575Z,31.51
2018-08-03T11:21:24.580Z,31.53
2018-08-03T11:22:24.346Z,31.51
2018-08-03T11:23:24.594Z,31.5
2018-08-03T11:24:25.065Z,31.68
2018-08-03T11:25:24.098Z,31.68
2018-08-03T11:26:24.608Z,31.69
2018-08-03T11:27:24.613Z,31.69
2018-08-03T11:28:24.618Z,31.72
2018-08-03T11:29:24.622Z,31.7
2018-08-03T11:30:24.635Z,31.7
2018-08-03T11:31:24.637Z,31.63
2018-08-03T11:32:24.639Z,31.66
2018-08-03T11:33:24.645Z,31.61
2018-08-03T11:34:24.656Z,31.63
2018-08-03T11:35:24.659Z,31.58
2018-08-03T11:36:24.668Z,31.54
2018-08-03T11:37:24.666Z,31.53
2018-08-03T11:38:24.421Z,31.54
2018-08-03T11:39:24.677Z,31.58
2018-08-03T11:40:24.682Z,31.65
2018-08-03T11:41:24.690Z,31.53
2018-08-03T11:42:24.696Z,31.69
2018-08-03T11:43:24.449Z,31.75
2018-08-03T11:44:24.709Z,31.69
2018-08-03T11:45:24.708Z,31.7
2018-08-03T11:46:24.713Z,31.65
2018-08-03T11:47:24.720Z,31.69
2018-08-03T11:48:24.944Z,31.66
2018-08-03T11:49:24.477Z,31.68
2018-08-03T11:50:24.738Z,31.73
2018-08-03T11:51:24.751Z,31.69
2018-08-03T11:52:24.747Z,31.69
2018-08-03T11:53:24.758Z,31.73
2018-08-03T11:54:24.758Z,31.75
2018-08-03T11:55:24.763Z,31.69
2018-08-03T11:56:24.782Z,31.81
2018-08-03T11:57:24.523Z,31.93
2018-08-03T11:58:24.778Z,31.88
2018-08-03T11:59:24.784Z,32
2018-08-03T12:00:24.536Z,32
2018-08-03T12:01:24.797Z,31.96
2018-08-03T12:02:24.549Z,31.96
2018-08-03T12:03:24.810Z,31.88
2018-08-03T12:04:24.811Z,31.99
2018-08-03T12:05:24.817Z,32.03
2018-08-03T12:06:24.979Z,32
2018-08-03T12:07:24.833Z,31.96
2018-08-03T12:08:24.836Z,31.95
2018-08-03T12:09:24.588Z,31.93
2018-08-03T12:10:24.851Z,32.03
2018-08-03T12:11:24.596Z,31.93
2018-08-03T12:12:24.683Z,32
2018-08-03T12:13:24.858Z,31.99
2018-08-03T12:14:24.866Z,32.04
2018-08-03T12:15:24.626Z,31.99
2018-08-03T12:16:24.877Z,32.01
2018-08-03T12:17:24.883Z,32.03
2018-08-03T12:18:24.886Z,32.01
2018-08-03T12:19:24.892Z,32.04
2018-08-03T12:20:24.897Z,32.01
2018-08-03T12:21:24.904Z,31.99
2018-08-03T12:22:24.906Z,32.01
2018-08-03T12:23:24.970Z,32.07
2018-08-03T12:24:24.671Z,32.03
2018-08-03T12:25:24.926Z,32.03
2018-08-03T12:26:24.930Z,32.13
2018-08-03T12:27:24.939Z,32.06
2018-08-03T12:28:24.690Z,32.03
2018-08-03T12:29:24.949Z,32.03
2018-08-03T12:30:24.953Z,32
2018-08-03T12:31:24.847Z,31.93
2018-08-03T12:32:24.963Z,31.91
2018-08-03T12:33:24.968Z,31.86
2018-08-03T12:34:24.978Z,31.86
2018-08-03T12:35:24.980Z,31.86
2018-08-03T12:36:24.986Z,31.93
2018-08-03T12:37:25.008Z,31.86
2018-08-03T12:38:24.998Z,31.89
2018-08-03T12:39:24.752Z,31.85
2018-08-03T12:40:24.756Z,31.85
2018-08-03T12:41:24.768Z,31.88
2018-08-03T12:42:24.766Z,31.92
2018-08-03T12:43:25.250Z,31.89
2018-08-03T12:44:24.777Z,31.93
2018-08-03T12:45:33.832Z,31.99
2018-08-03T12:46:25.043Z,31.95
2018-08-03T12:47:24.798Z,32.07
2018-08-03T12:48:25.059Z,32.18
2018-08-03T12:49:24.556Z,32.08
2018-08-03T12:50:25.060Z,32.26
2018-08-03T12:51:25.068Z,32.25
2018-08-03T12:52:24.868Z,32.28
2018-08-03T12:53:25.078Z,32.35
2018-08-03T12:54:24.832Z,32.28
2018-08-03T12:55:25.102Z,32.3